Time;durP1;ratioP1;P1;durP2;ratioP2;P2;SDS_P1;SDS_P2;PMS_P1;PMS_P2;Temp;Humidity;BMP_temperature;BMP_pressure;BME280_temperature;BME280_humidity;BME280_pressure;Samples;Min_cycle;Max_cycle;Signal;HPM_P1;HPM_P2
2022/02/06 00:00:01;;;;;;;28.33;13.32;;;;;;;;;;5050765;28;20495;-63
2022/02/06 00:02:32;;;;;;;26.55;12.43;;;;;;;;;;5050656;28;20385;-62
2022/02/06 00:04:58;;;;;;;28.00;14.03;;;;;;;;;;5050595;28;20017;-63
2022/02/06 00:07:25;;;;;;;27.88;12.77;;;;;;;;;;5050570;28;20493;-64
2022/02/06 00:09:51;;;;;;;25.77;12.02;;;;;;;;;;5050630;28;20029;-64
2022/02/06 00:12:17;;;;;;;24.02;12.32;;;;;;;;;;5050576;28;20427;-64
2022/02/06 00:14:43;;;;;;;21.98;12.15;;;;;;;;;;5050199;28;20025;-64
2022/02/06 00:17:09;;;;;;;21.92;11.27;;;;;;;;;;5050691;28;20025;-64
2022/02/06 00:19:38;;;;;;;22.15;11.93;;;;;;;;;;5050460;28;20022;-64
2022/02/06 00:22:07;;;;;;;21.85;11.50;;;;;;;;;;5032176;28;20056;-64
2022/02/06 00:24:58;;;;;;;22.90;11.48;;;;;;;;;;5050356;28;20033;-64
2022/02/06 00:27:35;;;;;;;22.65;10.98;;;;;;;;;;5050288;28;20057;-63
2022/02/06 00:30:18;;;;;;;21.58;11.38;;;;;;;;;;5032417;28;20030;-64
2022/02/06 00:32:50;;;;;;;22.42;11.88;;;;;;;;;;5050725;28;20032;-63
2022/02/06 00:35:26;;;;;;;34.25;13.07;;;;;;;;;;5050744;28;20025;-64
2022/02/06 00:43:08;;;;;;;;;;;;;;;;;;5054614;28;20029;-63
2022/02/06 00:45:34;;;;;;;28.73;13.52;;;;;;;;;;5054000;28;19913;-64
2022/02/06 00:48:00;;;;;;;29.23;14.63;;;;;;;;;;5054283;28;20033;-64
2022/02/06 00:50:28;;;;;;;27.33;14.48;;;;;;;;;;5054328;28;20017;-64
2022/02/06 00:53:03;;;;;;;25.55;13.00;;;;;;;;;;5054257;28;20029;-62
2022/02/06 00:55:29;;;;;;;24.15;12.30;;;;;;;;;;5053910;28;20025;-63
2022/02/06 00:57:55;;;;;;;23.85;12.52;;;;;;;;;;5053982;28;20491;-63
2022/02/06 01:00:23;;;;;;;27.50;13.57;;;;;;;;;;5036159;28;20112;-62
2022/02/06 01:02:49;;;;;;;21.38;12.00;;;;;;;;;;5054141;28;20044;-63
2022/02/06 01:05:15;;;;;;;24.23;12.73;;;;;;;;;;5053941;28;20538;-62
2022/02/06 01:07:41;;;;;;;26.08;12.82;;;;;;;;;;5053447;28;20377;-63
2022/02/06 01:10:08;;;;;;;26.95;12.90;;;;;;;;;;5053556;28;20018;-63
2022/02/06 01:12:36;;;;;;;30.58;13.90;;;;;;;;;;5053319;28;20033;-64
2022/02/06 01:15:36;;;;;;;30.02;12.88;;;;;;;;;;5053557;28;20487;-64
2022/02/06 01:18:01;;;;;;;23.05;11.95;;;;;;;;;;5050342;28;20064;-63
2022/02/06 01:20:35;;;;;;;24.17;11.52;;;;;;;;;;5053521;28;20508;-64
2022/02/06 01:23:11;;;;;;;26.27;13.35;;;;;;;;;;5053373;28;20029;-64
2022/02/06 01:25:50;;;;;;;25.20;12.70;;;;;;;;;;5053053;28;20133;-63
2022/02/06 01:28:21;;;;;;;29.08;15.07;;;;;;;;;;5053098;28;20072;-63
2022/02/06 01:30:58;;;;;;;24.70;14.30;;;;;;;;;;5053392;28;20465;-63
2022/02/06 01:33:33;;;;;;;30.48;15.43;;;;;;;;;;5053286;28;20052;-63
2022/02/06 01:36:07;;;;;;;26.25;14.75;;;;;;;;;;5053323;28;20473;-63
2022/02/06 01:39:39;;;;;;;27.85;15.65;;;;;;;;;;5053041;28;20029;-64
2022/02/06 01:41:28;;;;;;;28.63;15.35;;;;;;;;;;5042113;28;20045;-64
2022/02/06 02:27:03;;;;;;;22.48;12.82;;;;;;;;;;4990732;28;20044;-63
2022/02/06 02:48:10;;;;;;;32.42;15.35;;;;;;;;;;5052144;28;20060;-61
2022/02/06 02:50:41;;;;;;;34.60;16.70;;;;;;;;;;5051927;28;20025;-63
2022/02/06 03:03:17;;;;;;;30.40;14.85;;;;;;;;;;5052620;28;20048;-62
2022/02/06 03:05:44;;;;;;;32.53;15.93;;;;;;;;;;5052606;28;20048;-62
2022/02/06 03:08:11;;;;;;;29.95;15.80;;;;;;;;;;5051111;28;20072;-61
2022/02/06 03:10:38;;;;;;;30.15;16.13;;;;;;;;;;5051462;28;20025;-62
2022/02/06 03:13:08;;;;;;;31.67;15.40;;;;;;;;;;5051485;28;20040;-62
2022/02/06 03:15:45;;;;;;;28.38;15.13;;;;;;;;;;5051335;28;20143;-62
2022/02/06 03:18:19;;;;;;;26.92;14.40;;;;;;;;;;5051482;28;20044;-63
2022/02/06 03:20:45;;;;;;;31.83;16.92;;;;;;;;;;5051211;28;20116;-62
2022/02/06 03:23:13;;;;;;;32.05;16.20;;;;;;;;;;5051567;28;20025;-63
2022/02/06 03:25:52;;;;;;;28.55;15.98;;;;;;;;;;5050800;28;20045;-62
2022/02/06 03:28:19;;;;;;;35.75;17.10;;;;;;;;;;5051034;28;20484;-62
2022/02/06 03:30:45;;;;;;;35.92;17.42;;;;;;;;;;5051002;28;20349;-64
2022/02/06 03:33:11;;;;;;;31.52;16.13;;;;;;;;;;5051238;28;20031;-63
2022/02/06 03:35:38;;;;;;;31.08;15.68;;;;;;;;;;5051223;28;20078;-65
2022/02/06 03:38:04;;;;;;;32.17;16.40;;;;;;;;;;5050794;28;20433;-62
2022/02/06 03:40:37;;;;;;;34.00;16.83;;;;;;;;;;5051162;28;20032;-62
2022/02/06 03:45:45;;;;;;;35.92;17.58;;;;;;;;;;5050957;28;20112;-63
2022/02/06 03:48:16;;;;;;;37.38;17.17;;;;;;;;;;5050915;28;20029;-63
2022/02/06 03:50:48;;;;;;;33.13;16.38;;;;;;;;;;5050953;28;20463;-64
2022/02/06 03:53:17;;;;;;;35.53;16.40;;;;;;;;;;5050871;28;20032;-61
2022/02/06 03:55:44;;;;;;;31.15;17.38;;;;;;;;;;5050509;28;20028;-61
2022/02/06 03:58:10;;;;;;;33.63;16.73;;;;;;;;;;5050803;28;20047;-62
2022/02/06 04:00:36;;;;;;;34.60;16.63;;;;;;;;;;5050893;28;20029;-62
2022/02/06 04:03:03;;;;;;;31.95;16.70;;;;;;;;;;5050839;28;20366;-62
2022/02/06 04:05:30;;;;;;;31.45;16.73;;;;;;;;;;5050700;28;20051;-61
2022/02/06 04:07:56;;;;;;;37.38;17.15;;;;;;;;;;5050792;28;20033;-63
2022/02/06 04:10:22;;;;;;;30.88;15.82;;;;;;;;;;5050852;28;20487;-63
2022/02/06 04:12:49;;;;;;;33.28;16.80;;;;;;;;;;5050732;28;20025;-61
2022/02/06 04:15:25;;;;;;;30.85;16.83;;;;;;;;;;5051946;28;20079;-61
2022/02/06 04:18:06;;;;;;;33.35;16.58;;;;;;;;;;5054790;28;20380;-61
2022/02/06 04:20:32;;;;;;;31.00;16.40;;;;;;;;;;5054685;28;20028;-64
2022/02/06 04:22:58;;;;;;;33.22;17.83;;;;;;;;;;5054886;28;20017;-62
2022/02/06 04:25:24;;;;;;;30.95;17.42;;;;;;;;;;5054095;28;20053;-61
2022/02/06 04:27:50;;;;;;;34.83;17.85;;;;;;;;;;5054398;28;20126;-62
2022/02/06 04:30:16;;;;;;;33.42;17.17;;;;;;;;;;5054463;28;20094;-62
2022/02/06 04:32:42;;;;;;;35.83;17.77;;;;;;;;;;5054367;28;20104;-62
2022/02/06 04:35:15;;;;;;;33.13;16.48;;;;;;;;;;5054125;28;20029;-61
2022/02/06 04:38:06;;;;;;;37.53;19.63;;;;;;;;;;5054303;28;20074;-62
2022/02/06 05:13:35;;;;;;;20.42;11.38;;;;;;;;;;4991986;28;20458;-62
2022/02/06 05:34:14;;;;;;;26.17;13.57;;;;;;;;;;4991769;28;20204;-61
2022/02/06 05:36:40;;;;;;;24.15;13.50;;;;;;;;;;4991892;28;20085;-63
2022/02/06 05:39:06;;;;;;;26.77;14.02;;;;;;;;;;4991596;28;20105;-62
2022/02/06 05:41:32;;;;;;;24.83;12.50;;;;;;;;;;4991763;28;20125;-62
2022/02/06 05:43:58;;;;;;;24.98;12.70;;;;;;;;;;4991365;28;20030;-62
2022/02/06 05:46:24;;;;;;;27.25;13.68;;;;;;;;;;4991747;28;20058;-62
2022/02/06 05:48:50;;;;;;;28.17;12.95;;;;;;;;;;4991428;28;20039;-62
2022/02/06 05:51:17;;;;;;;25.20;12.93;;;;;;;;;;4991028;28;20615;-62
2022/02/06 05:53:43;;;;;;;24.83;13.73;;;;;;;;;;4990966;28;20070;-62
2022/02/06 05:56:09;;;;;;;29.88;13.38;;;;;;;;;;4991218;28;20081;-62
2022/02/06 05:58:35;;;;;;;24.80;13.45;;;;;;;;;;5037486;28;20037;-62
2022/02/06 06:01:01;;;;;;;29.33;13.30;;;;;;;;;;5053065;28;20056;-61
2022/02/06 06:03:27;;;;;;;25.77;13.13;;;;;;;;;;5052901;28;20029;-62
2022/02/06 06:05:53;;;;;;;26.60;13.65;;;;;;;;;;5052930;28;20076;-62
2022/02/06 06:08:20;;;;;;;25.42;13.45;;;;;;;;;;5052694;28;20124;-62
2022/02/06 06:10:47;;;;;;;23.48;12.73;;;;;;;;;;5052711;28;20051;-61
2022/02/06 06:13:13;;;;;;;21.75;12.07;;;;;;;;;;5052598;28;20376;-61
2022/02/06 06:15:39;;;;;;;23.90;12.30;;;;;;;;;;5052693;28;20028;-62
2022/02/06 06:18:08;;;;;;;24.77;13.20;;;;;;;;;;5052664;28;20488;-63
2022/02/06 06:20:36;;;;;;;25.92;13.38;;;;;;;;;;5052565;28;20024;-62
2022/02/06 06:23:02;;;;;;;25.77;13.65;;;;;;;;;;5052644;28;20025;-64
2022/02/06 06:25:35;;;;;;;28.80;15.15;;;;;;;;;;5033977;28;20037;-62
2022/02/06 06:28:01;;;;;;;25.58;15.38;;;;;;;;;;5052169;28;20476;-63
2022/02/06 06:30:27;;;;;;;34.20;16.55;;;;;;;;;;5052478;28;20435;-62
2022/02/06 06:32:53;;;;;;;32.22;16.60;;;;;;;;;;5052700;28;20021;-60
2022/02/06 06:35:19;;;;;;;33.03;16.73;;;;;;;;;;5052522;28;20052;-61
2022/02/06 06:37:47;;;;;;;30.55;16.40;;;;;;;;;;5052098;28;20086;-61
2022/02/06 06:40:13;;;;;;;30.88;17.60;;;;;;;;;;5052113;28;20021;-62
2022/02/06 06:42:40;;;;;;;30.83;16.65;;;;;;;;;;5052525;28;20108;-62
2022/02/06 06:45:06;;;;;;;31.67;17.00;;;;;;;;;;5052106;28;20028;-62
2022/02/06 06:47:32;;;;;;;30.13;17.10;;;;;;;;;;5052202;28;20378;-62
2022/02/06 06:49:58;;;;;;;32.35;17.35;;;;;;;;;;5052338;28;20147;-63
2022/02/06 06:52:24;;;;;;;31.90;17.20;;;;;;;;;;5052000;28;20103;-62
2022/02/06 06:54:59;;;;;;;26.60;14.30;;;;;;;;;;5051957;28;20032;-62
2022/02/06 06:57:30;;;;;;;30.05;15.48;;;;;;;;;;5051759;28;20108;-62
2022/02/06 07:04:50;;;;;;;36.10;18.83;;;;;;;;;;5051836;28;20021;-62
2022/02/06 07:07:17;;;;;;;40.67;21.10;;;;;;;;;;5051686;28;20528;-62
2022/02/06 07:09:43;;;;;;;40.35;20.40;;;;;;;;;;5051437;28;20371;-61
2022/02/06 07:12:12;;;;;;;38.97;19.17;;;;;;;;;;5051897;28;20384;-63
2022/02/06 07:14:39;;;;;;;35.53;17.92;;;;;;;;;;5051419;28;20025;-62
2022/02/06 07:17:05;;;;;;;33.50;17.63;;;;;;;;;;5051309;28;20077;-60
2022/02/06 07:19:31;;;;;;;27.17;14.57;;;;;;;;;;5051547;28;20082;-61
2022/02/06 07:21:57;;;;;;;29.73;15.55;;;;;;;;;;5051091;28;20036;-61
2022/02/06 07:24:26;;;;;;;28.60;14.85;;;;;;;;;;5050953;28;20441;-63
2022/02/06 07:26:56;;;;;;;46.85;26.73;;;;;;;;;;5051108;28;20051;-62
2022/02/06 07:29:23;;;;;;;36.42;19.67;;;;;;;;;;5051365;28;20028;-62
2022/02/06 07:31:50;;;;;;;45.80;22.48;;;;;;;;;;5051330;28;20025;-61
2022/02/06 07:34:17;;;;;;;41.75;21.35;;;;;;;;;;5051419;28;20036;-63
2022/02/06 07:36:43;;;;;;;38.40;18.00;;;;;;;;;;5051184;28;20147;-64
2022/02/06 07:39:09;;;;;;;23.20;11.85;;;;;;;;;;5050937;28;20028;-62
2022/02/06 07:41:35;;;;;;;26.23;13.00;;;;;;;;;;5051135;28;20029;-62
2022/02/06 07:44:01;;;;;;;41.33;20.23;;;;;;;;;;5050825;28;20029;-63
2022/02/06 07:46:37;;;;;;;40.75;20.67;;;;;;;;;;5051199;28;20025;-61
2022/02/06 07:49:05;;;;;;;35.22;18.73;;;;;;;;;;5050742;28;20033;-60
2022/02/06 07:51:31;;;;;;;28.30;14.93;;;;;;;;;;5050637;28;20100;-64
2022/02/06 07:53:57;;;;;;;15.93;8.60;;;;;;;;;;5050642;28;20477;-61
2022/02/06 07:56:23;;;;;;;19.50;9.77;;;;;;;;;;5050820;28;20036;-61
2022/02/06 07:58:49;;;;;;;27.27;13.25;;;;;;;;;;5050813;28;20384;-61
2022/02/06 08:01:15;;;;;;;14.85;6.93;;;;;;;;;;5050711;28;20468;-62
2022/02/06 08:03:41;;;;;;;13.00;6.32;;;;;;;;;;5050891;28;20413;-62
2022/02/06 08:06:07;;;;;;;13.50;5.82;;;;;;;;;;5050589;28;20392;-62
2022/02/06 08:08:33;;;;;;;15.38;7.20;;;;;;;;;;5050235;28;20544;-62
2022/02/06 08:11:01;;;;;;;13.68;7.47;;;;;;;;;;5050569;28;20029;-63
2022/02/06 08:13:43;;;;;;;19.63;8.82;;;;;;;;;;5050402;28;20017;-63
2022/02/06 08:16:10;;;;;;;19.60;8.70;;;;;;;;;;5050424;28;20107;-62
2022/02/06 08:18:40;;;;;;;14.65;8.30;;;;;;;;;;5050469;28;20033;-64
2022/02/06 08:21:06;;;;;;;21.02;9.60;;;;;;;;;;5049884;28;20045;-62
2022/02/06 08:23:33;;;;;;;16.75;9.00;;;;;;;;;;5050163;28;20021;-62
2022/02/06 08:25:59;;;;;;;20.17;9.85;;;;;;;;;;5050102;28;20484;-63
2022/02/06 08:28:25;;;;;;;19.80;9.05;;;;;;;;;;5050495;28;20519;-61
2022/02/06 08:30:51;;;;;;;20.02;9.90;;;;;;;;;;5050623;28;20121;-62
2022/02/06 08:33:17;;;;;;;25.33;10.63;;;;;;;;;;5050598;28;20032;-63
2022/02/06 08:35:44;;;;;;;20.02;10.90;;;;;;;;;;5050733;28;20148;-63
2022/02/06 08:38:10;;;;;;;18.85;10.20;;;;;;;;;;5050489;28;20820;-62
2022/02/06 08:40:37;;;;;;;19.52;10.02;;;;;;;;;;5050537;28;20104;-63
2022/02/06 08:43:03;;;;;;;18.27;9.55;;;;;;;;;;5050575;28;20569;-62
2022/02/06 08:45:30;;;;;;;18.10;9.45;;;;;;;;;;5050173;28;20025;-63
2022/02/06 08:47:56;;;;;;;23.13;10.00;;;;;;;;;;5049915;28;20375;-62
2022/02/06 08:50:23;;;;;;;25.02;10.63;;;;;;;;;;5050166;28;20384;-64
2022/02/06 08:52:49;;;;;;;19.85;9.30;;;;;;;;;;5050303;28;20036;-63
2022/02/06 08:55:15;;;;;;;19.10;9.63;;;;;;;;;;5050490;28;20036;-64
2022/02/06 08:57:47;;;;;;;17.60;9.40;;;;;;;;;;5049879;28;20037;-64
2022/02/06 09:00:13;;;;;;;18.20;9.73;;;;;;;;;;5049980;28;20104;-63
2022/02/06 09:02:39;;;;;;;18.55;9.25;;;;;;;;;;5053422;28;20033;-63
2022/02/06 09:05:05;;;;;;;18.10;9.57;;;;;;;;;;5053965;28;20017;-63
2022/02/06 09:07:31;;;;;;;21.25;9.50;;;;;;;;;;5053879;28;20097;-63
2022/02/06 09:10:00;;;;;;;17.92;9.30;;;;;;;;;;5053759;28;20029;-64
2022/02/06 09:12:27;;;;;;;17.58;8.90;;;;;;;;;;5053749;28;20486;-62
2022/02/06 09:14:53;;;;;;;18.13;8.95;;;;;;;;;;5053586;28;20021;-63
2022/02/06 09:17:20;;;;;;;19.50;9.32;;;;;;;;;;5053101;28;20113;-63
2022/02/06 09:19:46;;;;;;;15.18;8.57;;;;;;;;;;5053228;28;20021;-63
2022/02/06 09:22:16;;;;;;;18.70;8.75;;;;;;;;;;5053764;28;20043;-63
2022/02/06 09:24:42;;;;;;;18.25;9.15;;;;;;;;;;5053493;28;20405;-63
2022/02/06 09:27:09;;;;;;;16.80;8.10;;;;;;;;;;5053161;28;20075;-63
2022/02/06 09:29:36;;;;;;;15.90;7.57;;;;;;;;;;5053274;28;20079;-63
2022/02/06 09:37:11;;;;;;;15.75;7.80;;;;;;;;;;5053520;28;20119;-62
2022/02/06 09:39:40;;;;;;;13.90;7.15;;;;;;;;;;5053186;28;20032;-63
2022/02/06 09:42:07;;;;;;;19.05;7.60;;;;;;;;;;5052937;28;20028;-62
2022/02/06 09:44:34;;;;;;;17.85;7.78;;;;;;;;;;5053114;28;20032;-63
2022/02/06 09:47:01;;;;;;;13.70;6.63;;;;;;;;;;5052911;28;20033;-64
2022/02/06 09:49:29;;;;;;;16.33;5.55;;;;;;;;;;5052988;28;20041;-60
2022/02/06 09:51:55;;;;;;;10.93;5.22;;;;;;;;;;5053056;28;20426;-62
2022/02/06 09:54:23;;;;;;;12.55;5.22;;;;;;;;;;5052953;28;20032;-62
2022/02/06 09:56:50;;;;;;;10.25;5.15;;;;;;;;;;5052799;28;20044;-64
2022/02/06 09:59:18;;;;;;;10.43;4.68;;;;;;;;;;5052739;28;20489;-64
2022/02/06 10:01:46;;;;;;;9.20;4.00;;;;;;;;;;5052639;28;20029;-63
2022/02/06 10:04:13;;;;;;;12.32;5.05;;;;;;;;;;5052789;28;20155;-63
2022/02/06 10:07:11;;;;;;;12.05;5.10;;;;;;;;;;5052462;28;20492;-63
2022/02/06 10:09:43;;;;;;;10.75;4.70;;;;;;;;;;4952204;29;20138;-62
2022/02/06 10:12:10;;;;;;;12.30;4.22;;;;;;;;;;4936068;28;20174;-61
2022/02/06 10:14:36;;;;;;;10.13;4.50;;;;;;;;;;4951732;29;20031;-61
2022/02/06 10:17:03;;;;;;;12.20;5.40;;;;;;;;;;4952201;28;20023;-62
2022/02/06 10:19:30;;;;;;;10.68;4.40;;;;;;;;;;4952051;29;20075;-63
2022/02/06 10:21:56;;;;;;;11.23;3.85;;;;;;;;;;4934902;29;20054;-63
2022/02/06 10:24:31;;;;;;;10.68;3.97;;;;;;;;;;4951009;29;20050;-62
2022/02/06 10:27:31;;;;;;;6.65;3.75;;;;;;;;;;4951251;28;20044;-62
2022/02/06 10:29:57;;;;;;;8.98;3.53;;;;;;;;;;4949447;28;20093;-63
2022/02/06 10:32:23;;;;;;;7.72;3.00;;;;;;;;;;4951690;29;20092;-60
2022/02/06 10:34:49;;;;;;;9.15;4.05;;;;;;;;;;4951944;29;20043;-62
2022/02/06 10:37:22;;;;;;;8.13;3.50;;;;;;;;;;4951722;29;20031;-63
2022/02/06 10:39:51;;;;;;;11.93;3.97;;;;;;;;;;4951274;29;20039;-65
2022/02/06 10:42:46;;;;;;;12.35;4.65;;;;;;;;;;4951734;28;20032;-63
2022/02/06 10:45:18;;;;;;;9.88;4.00;;;;;;;;;;4923054;28;20093;-64
2022/02/06 10:47:45;;;;;;;7.30;3.92;;;;;;;;;;4970788;28;20042;-63
2022/02/06 10:50:13;;;;;;;10.98;4.07;;;;;;;;;;4970716;28;20046;-63
2022/02/06 10:52:39;;;;;;;5.68;3.20;;;;;;;;;;4970535;28;20037;-63
2022/02/06 10:55:06;;;;;;;8.60;3.85;;;;;;;;;;4970131;28;20583;-64
2022/02/06 10:57:32;;;;;;;10.20;4.05;;;;;;;;;;4969779;28;20130;-62
2022/02/06 11:00:00;;;;;;;8.10;4.18;;;;;;;;;;4970290;28;20406;-63
2022/02/06 11:02:27;;;;;;;9.30;2.97;;;;;;;;;;4970045;28;20046;-62
2022/02/06 11:04:56;;;;;;;9.00;3.53;;;;;;;;;;4970641;28;20542;-63
2022/02/06 11:07:22;;;;;;;8.32;3.00;;;;;;;;;;4970488;28;20038;-64
2022/02/06 11:09:48;;;;;;;10.32;2.70;;;;;;;;;;4970245;28;20849;-61
2022/02/06 11:12:22;;;;;;;10.55;3.13;;;;;;;;;;4970577;28;20039;-63
2022/02/06 11:14:51;;;;;;;6.05;2.92;;;;;;;;;;4970197;28;20035;-67
2022/02/06 11:17:19;;;;;;;7.38;3.45;;;;;;;;;;4970198;28;20019;-64
2022/02/06 11:20:08;;;;;;;8.35;3.20;;;;;;;;;;4970116;28;20063;-67
2022/02/06 11:22:35;;;;;;;8.07;3.97;;;;;;;;;;5043889;28;20037;-61
2022/02/06 11:25:04;;;;;;;7.85;4.38;;;;;;;;;;5049476;28;20115;-62
2022/02/06 11:27:31;;;;;;;9.07;3.70;;;;;;;;;;5050978;28;20032;-62
2022/02/06 11:29:57;;;;;;;10.77;3.10;;;;;;;;;;5051323;28;20033;-62
2022/02/06 11:32:26;;;;;;;9.48;3.10;;;;;;;;;;5051072;28;20028;-62
2022/02/06 11:34:52;;;;;;;6.50;2.67;;;;;;;;;;5051462;28;20033;-63
2022/02/06 11:45:56;;;;;;;10.75;3.78;;;;;;;;;;5050998;28;20056;-63
2022/02/06 11:48:24;;;;;;;7.43;3.80;;;;;;;;;;5050639;28;20039;-63
2022/02/06 11:50:51;;;;;;;5.63;2.95;;;;;;;;;;5050762;28;20028;-62
2022/02/06 11:53:37;;;;;;;19.60;5.45;;;;;;;;;;5050648;28;20021;-62
2022/02/06 11:56:19;;;;;;;26.70;9.98;;;;;;;;;;5050826;28;20036;-63
2022/02/06 11:58:46;;;;;;;14.02;5.45;;;;;;;;;;5050769;28;20137;-62
2022/02/06 12:01:12;;;;;;;28.20;10.13;;;;;;;;;;5050803;28;20100;-64
2022/02/06 12:03:49;;;;;;;11.48;5.15;;;;;;;;;;5050090;28;20029;-62
2022/02/06 12:06:15;;;;;;;20.95;7.65;;;;;;;;;;5050689;28;20025;-63
2022/02/06 12:08:45;;;;;;;9.15;4.40;;;;;;;;;;5050357;28;20065;-63
2022/02/06 12:11:15;;;;;;;8.60;4.53;;;;;;;;;;5050720;28;20048;-61
2022/02/06 12:13:42;;;;;;;10.48;5.05;;;;;;;;;;5050297;28;20082;-62
2022/02/06 12:16:18;;;;;;;12.25;5.53;;;;;;;;;;5050422;28;20049;-64
2022/02/06 12:18:44;;;;;;;14.00;6.25;;;;;;;;;;5050672;28;20025;-61
2022/02/06 12:21:21;;;;;;;11.63;4.85;;;;;;;;;;5050535;28;20488;-62
2022/02/06 12:23:52;;;;;;;15.93;7.82;;;;;;;;;;5049860;28;20123;-61
2022/02/06 12:28:53;;;;;;;15.38;7.82;;;;;;;;;;5050093;28;20048;-61
2022/02/06 12:31:26;;;;;;;20.67;8.90;;;;;;;;;;5050567;28;20021;-65
2022/02/06 12:33:58;;;;;;;19.25;6.60;;;;;;;;;;5050224;28;20021;-62
2022/02/06 12:39:27;;;;;;;15.20;6.15;;;;;;;;;;5054440;28;20039;-63
2022/02/06 12:41:54;;;;;;;14.98;6.68;;;;;;;;;;5054625;28;20449;-63
2022/02/06 12:44:21;;;;;;;11.73;5.47;;;;;;;;;;5054397;28;20082;-63
2022/02/06 12:46:48;;;;;;;10.50;5.50;;;;;;;;;;5054215;28;20095;-62
2022/02/06 12:49:21;;;;;;;10.40;5.05;;;;;;;;;;5054057;28;20473;-62
2022/02/06 12:51:54;;;;;;;10.02;5.65;;;;;;;;;;5053704;28;20032;-61
2022/02/06 12:54:21;;;;;;;10.27;5.25;;;;;;;;;;5053955;28;20439;-61
2022/02/06 12:56:47;;;;;;;16.00;5.57;;;;;;;;;;5054170;28;20029;-63
2022/02/06 12:59:18;;;;;;;16.40;6.20;;;;;;;;;;5054131;28;20082;-61
2022/02/06 13:01:46;;;;;;;14.10;5.78;;;;;;;;;;5054102;28;20051;-61
2022/02/06 13:04:15;;;;;;;11.00;4.50;;;;;;;;;;5053794;28;20037;-61
2022/02/06 13:06:42;;;;;;;13.88;4.47;;;;;;;;;;5053651;28;20017;-63
2022/02/06 13:09:15;;;;;;;12.27;4.72;;;;;;;;;;5053735;28;20215;-61
2022/02/06 13:11:53;;;;;;;13.07;4.60;;;;;;;;;;5054027;28;20092;-62
2022/02/06 13:14:41;;;;;;;14.85;4.22;;;;;;;;;;5053837;28;20028;-61
2022/02/06 13:17:39;;;;;;;12.07;3.72;;;;;;;;;;5035805;28;20028;-62
2022/02/06 13:22:51;;;;;;;7.20;3.78;;;;;;;;;;5053392;28;20028;-60
2022/02/06 13:28:41;;;;;;;11.30;4.22;;;;;;;;;;5048535;28;20489;-63
2022/02/06 13:39:02;;;;;;;14.63;4.65;;;;;;;;;;5052878;28;20568;-62
2022/02/06 13:41:32;;;;;;;10.63;4.60;;;;;;;;;;5052865;28;20472;-62
2022/02/06 13:43:58;;;;;;;14.57;4.95;;;;;;;;;;5052617;28;20037;-63
2022/02/06 13:46:27;;;;;;;14.00;5.55;;;;;;;;;;5053010;28;20029;-62
2022/02/06 13:48:54;;;;;;;17.33;6.38;;;;;;;;;;5052059;28;20078;-63
2022/02/06 13:51:24;;;;;;;16.63;6.03;;;;;;;;;;5052716;28;20036;-62
2022/02/06 13:53:54;;;;;;;20.80;6.32;;;;;;;;;;5052464;28;20037;-63
2022/02/06 13:56:20;;;;;;;14.02;5.40;;;;;;;;;;5052663;28;20469;-63
2022/02/06 13:58:59;;;;;;;16.92;5.70;;;;;;;;;;5052507;28;20024;-63
2022/02/06 14:01:37;;;;;;;11.27;5.75;;;;;;;;;;5053328;28;20025;-63
2022/02/06 14:04:04;;;;;;;14.07;6.70;;;;;;;;;;5053142;28;20448;-62
2022/02/06 14:06:41;;;;;;;18.90;7.03;;;;;;;;;;5053242;28;20036;-63
2022/02/06 14:09:22;;;;;;;16.02;7.53;;;;;;;;;;5053118;28;20044;-61
2022/02/06 14:12:05;;;;;;;13.55;5.63;;;;;;;;;;5052752;28;20389;-63
2022/02/06 14:14:32;;;;;;;9.43;5.15;;;;;;;;;;5052944;28;20473;-64
2022/02/06 14:16:59;;;;;;;13.15;5.53;;;;;;;;;;5052896;28;20021;-62
2022/02/06 14:19:32;;;;;;;10.35;5.35;;;;;;;;;;5052470;28;20083;-63
2022/02/06 14:21:58;;;;;;;15.02;6.18;;;;;;;;;;5052086;28;20377;-63
2022/02/06 14:24:24;;;;;;;13.00;5.75;;;;;;;;;;5051758;28;20140;-62
2022/02/06 14:27:04;;;;;;;17.67;6.03;;;;;;;;;;5052357;28;20040;-63
2022/02/06 14:29:33;;;;;;;12.65;5.60;;;;;;;;;;5052408;28;20063;-62
2022/02/06 14:32:14;;;;;;;8.98;4.90;;;;;;;;;;5052304;28;20029;-62
2022/02/06 14:34:40;;;;;;;13.90;6.40;;;;;;;;;;5034084;28;20508;-63
2022/02/06 14:37:09;;;;;;;15.68;7.45;;;;;;;;;;5052244;28;20103;-62
2022/02/06 14:39:38;;;;;;;30.70;14.25;;;;;;;;;;5052039;28;20050;-62
2022/02/06 14:42:18;;;;;;;50.70;18.45;;;;;;;;;;5052185;28;20013;-61
2022/02/06 14:44:44;;;;;;;29.05;12.38;;;;;;;;;;5052043;28;20028;-61
2022/02/06 14:47:10;;;;;;;24.73;11.35;;;;;;;;;;5052032;28;20044;-62
2022/02/06 14:49:36;;;;;;;42.97;13.63;;;;;;;;;;5051504;28;20034;-62
2022/02/06 14:52:03;;;;;;;25.85;9.65;;;;;;;;;;5051865;28;20432;-62
2022/02/06 14:54:35;;;;;;;27.02;10.38;;;;;;;;;;5051408;28;20377;-62
2022/02/06 14:57:01;;;;;;;22.52;9.80;;;;;;;;;;5051786;28;20477;-61
2022/02/06 14:59:27;;;;;;;25.17;11.02;;;;;;;;;;5051177;28;20021;-62
2022/02/06 15:01:54;;;;;;;21.05;9.68;;;;;;;;;;5051613;28;20025;-62
2022/02/06 15:04:23;;;;;;;22.30;10.02;;;;;;;;;;5051371;28;20100;-62
2022/02/06 15:06:49;;;;;;;20.88;9.68;;;;;;;;;;5051563;28;20014;-64
2022/02/06 15:09:15;;;;;;;20.08;8.73;;;;;;;;;;5051690;28;20041;-62
2022/02/06 15:11:42;;;;;;;17.92;9.00;;;;;;;;;;5051746;28;20021;-63
2022/02/06 15:14:08;;;;;;;22.45;9.15;;;;;;;;;;5051633;28;20025;-61
2022/02/06 15:16:36;;;;;;;18.65;8.95;;;;;;;;;;5051431;28;20079;-62
2022/02/06 15:19:13;;;;;;;21.35;10.20;;;;;;;;;;5051056;28;20465;-63
2022/02/06 15:21:40;;;;;;;20.83;11.07;;;;;;;;;;5051115;28;20029;-62
2022/02/06 15:24:06;;;;;;;22.77;10.25;;;;;;;;;;5051202;28;20029;-63
2022/02/06 15:26:32;;;;;;;23.52;11.48;;;;;;;;;;5051283;28;20135;-62
2022/02/06 15:28:58;;;;;;;24.65;13.07;;;;;;;;;;5051154;28;20086;-62
2022/02/06 15:31:24;;;;;;;28.15;13.40;;;;;;;;;;5050875;28;20055;-63
2022/02/06 15:33:52;;;;;;;25.40;12.48;;;;;;;;;;5050978;28;20035;-62
2022/02/06 15:36:19;;;;;;;23.40;12.35;;;;;;;;;;5050958;28;20049;-61
2022/02/06 15:38:47;;;;;;;29.08;12.85;;;;;;;;;;5050837;28;20536;-63
2022/02/06 15:41:15;;;;;;;27.30;13.73;;;;;;;;;;5051140;28;20324;-60
2022/02/06 15:43:41;;;;;;;29.65;15.48;;;;;;;;;;5050787;28;20048;-62
2022/02/06 15:46:07;;;;;;;35.70;16.80;;;;;;;;;;5050781;28;20021;-62
2022/02/06 15:48:33;;;;;;;39.53;18.40;;;;;;;;;;5050940;28;20109;-64
2022/02/06 15:50:59;;;;;;;47.28;21.92;;;;;;;;;;5050874;28;20025;-62
2022/02/06 15:53:25;;;;;;;52.90;23.65;;;;;;;;;;5050901;28;20111;-63
2022/02/06 15:55:52;;;;;;;49.53;24.75;;;;;;;;;;5050805;28;20029;-61
2022/02/06 15:58:18;;;;;;;41.42;20.17;;;;;;;;;;5050349;28;20029;-61
2022/02/06 16:00:44;;;;;;;46.78;21.63;;;;;;;;;;5050547;28;20044;-63
2022/02/06 16:03:10;;;;;;;42.28;18.95;;;;;;;;;;5050696;28;20028;-62
2022/02/06 16:05:36;;;;;;;35.75;17.10;;;;;;;;;;5050708;28;20460;-65
2022/02/06 16:08:02;;;;;;;35.15;16.90;;;;;;;;;;5050616;28;20043;-62
2022/02/06 16:10:28;;;;;;;30.13;14.63;;;;;;;;;;5050086;28;20017;-62
2022/02/06 16:12:55;;;;;;;29.63;15.00;;;;;;;;;;5050503;28;20033;-63
2022/02/06 16:15:21;;;;;;;42.28;18.75;;;;;;;;;;5032248;28;20029;-63
2022/02/06 16:17:47;;;;;;;51.88;23.08;;;;;;;;;;5050418;28;20052;-63
2022/02/06 16:20:14;;;;;;;45.10;22.67;;;;;;;;;;5050615;28;20055;-63
2022/02/06 16:22:41;;;;;;;50.78;21.73;;;;;;;;;;5050538;28;20033;-62
2022/02/06 16:25:08;;;;;;;42.95;20.73;;;;;;;;;;5050397;28;20052;-63
2022/02/06 16:27:34;;;;;;;38.80;20.00;;;;;;;;;;5050180;28;20029;-62
2022/02/06 16:30:00;;;;;;;39.88;20.25;;;;;;;;;;5050495;28;20047;-63
2022/02/06 16:32:27;;;;;;;51.65;23.05;;;;;;;;;;5050503;28;20029;-63
2022/02/06 16:34:53;;;;;;;58.22;26.83;;;;;;;;;;5031561;28;20393;-63
2022/02/06 16:37:20;;;;;;;57.20;27.55;;;;;;;;;;5032158;28;20029;-64
2022/02/06 16:39:46;;;;;;;67.68;32.05;;;;;;;;;;5050410;28;20028;-63
2022/02/06 16:42:13;;;;;;;58.25;26.77;;;;;;;;;;5050356;28;20040;-65
2022/02/06 16:44:40;;;;;;;54.42;23.88;;;;;;;;;;5050267;28;20048;-62
2022/02/06 16:47:07;;;;;;;56.30;25.65;;;;;;;;;;5050135;28;20025;-63
2022/02/06 16:49:33;;;;;;;54.78;27.20;;;;;;;;;;5050347;28;20114;-64
2022/02/06 16:51:59;;;;;;;62.33;26.88;;;;;;;;;;5050159;28;20090;-63
2022/02/06 16:54:26;;;;;;;49.60;23.92;;;;;;;;;;5050120;28;20029;-62
2022/02/06 16:56:53;;;;;;;47.45;22.73;;;;;;;;;;5050447;28;20034;-62
2022/02/06 16:59:19;;;;;;;43.65;20.02;;;;;;;;;;5049792;28;20029;-63
2022/02/06 17:01:45;;;;;;;53.20;24.17;;;;;;;;;;5050145;28;20071;-63
2022/02/06 17:04:12;;;;;;;56.63;25.13;;;;;;;;;;5033948;28;20040;-62
2022/02/06 17:06:38;;;;;;;50.30;23.75;;;;;;;;;;5032430;28;20022;-63
2022/02/06 17:09:09;;;;;;;51.30;24.40;;;;;;;;;;5047748;28;20040;-64
2022/02/06 17:11:36;;;;;;;49.47;21.80;;;;;;;;;;5033192;28;20376;-63
2022/02/06 17:14:02;;;;;;;42.38;20.08;;;;;;;;;;5030105;28;20029;-63
2022/02/06 17:16:28;;;;;;;42.03;21.20;;;;;;;;;;5032310;28;20109;-63
2022/02/06 17:18:54;;;;;;;40.20;20.10;;;;;;;;;;5039079;28;20481;-62
2022/02/06 17:21:20;;;;;;;45.72;22.63;;;;;;;;;;5035820;28;20033;-62